Time;durP1;ratioP1;P1;durP2;ratioP2;P2;SDS_P1;SDS_P2;PMS_P1;PMS_P2;Temp;Humidity;BMP_temperature;BMP_pressure;BME280_temperature;BME280_humidity;BME280_pressure;Samples;Min_cycle;Max_cycle;Signal;HPM_P1;HPM_P2
2021/12/14 00:01:12;;;;;;;36.60;17.40;;;;;;;4.25;100.00;101297.89;1654854;84;21065;-67
2021/12/14 00:03:43;;;;;;;32.33;17.05;;;;;;;4.29;100.00;101302.55;1658383;84;21025;-66
2021/12/14 00:06:13;;;;;;;29.23;15.25;;;;;;;4.32;100.00;101299.98;1660430;86;21558;-67
2021/12/14 00:08:55;;;;;;;30.32;15.50;;;;;;;4.37;100.00;101299.10;1662224;85;21597;-67
2021/12/14 00:11:25;;;;;;;37.38;16.32;;;;;;;4.30;100.00;101294.91;1651484;86;20998;-67
2021/12/14 00:16:09;;;;;;;31.02;16.27;;;;;;;4.29;100.00;101293.64;1658302;85;21066;-68
2021/12/14 00:18:38;;;;;;;32.28;15.88;;;;;;;4.33;100.00;101287.67;1659534;85;21111;-67
2021/12/14 00:21:12;;;;;;;30.32;15.38;;;;;;;4.31;100.00;101281.73;1659628;85;21037;-66
2021/12/14 00:26:25;;;;;;;32.90;16.48;;;;;;;4.27;100.00;101277.07;1673468;85;21031;-66
2021/12/14 00:28:52;;;;;;;30.88;14.85;;;;;;;4.27;100.00;101274.52;1672022;85;21124;-66
2021/12/14 00:31:21;;;;;;;31.35;14.50;;;;;;;4.30;100.00;101278.75;1671713;85;21088;-67
2021/12/14 00:33:52;;;;;;;31.82;14.98;;;;;;;4.26;100.00;101267.75;1671861;85;21000;-67
2021/12/14 00:36:21;;;;;;;36.65;15.23;;;;;;;4.31;100.00;101262.18;1671642;85;21037;-68
2021/12/14 00:38:56;;;;;;;27.55;14.43;;;;;;;4.34;100.00;101267.68;1668925;85;21155;-67
2021/12/14 00:41:23;;;;;;;34.23;15.20;;;;;;;4.37;100.00;101273.61;1672118;85;21118;-67
2021/12/14 00:43:51;;;;;;;28.35;14.65;;;;;;;4.36;100.00;101275.76;1671187;85;21083;-67
2021/12/14 00:46:18;;;;;;;29.60;15.38;;;;;;;4.36;100.00;101268.52;1672180;85;21545;-67
2021/12/14 00:48:49;;;;;;;25.35;14.38;;;;;;;4.37;100.00;101268.52;1670840;85;21071;-67
2021/12/14 00:51:21;;;;;;;24.85;14.23;;;;;;;4.37;100.00;101268.52;1672022;84;21524;-67
2021/12/14 00:53:46;;;;;;;27.48;13.93;;;;;;;4.39;100.00;101267.23;1672514;85;21541;-68
2021/12/14 00:56:13;;;;;;;30.15;14.80;;;;;;;4.38;100.00;101264.28;1672055;85;21640;-67
2021/12/14 00:58:45;;;;;;;27.95;13.88;;;;;;;4.39;100.00;101279.98;1663834;85;21641;-67
2021/12/14 01:01:25;;;;;;;26.75;14.35;;;;;;;4.42;100.00;101277.43;1667899;84;21108;-66
2021/12/14 01:03:57;;;;;;;34.60;15.15;;;;;;;4.44;100.00;101272.30;1671153;85;21064;-67
2021/12/14 01:06:28;;;;;;;29.37;14.00;;;;;;;4.40;100.00;101273.61;1671519;85;21119;-67
2021/12/14 01:08:56;;;;;;;25.65;13.75;;;;;;;4.38;100.00;101266.83;1672097;85;21023;-67
2021/12/14 01:11:34;;;;;;;26.82;13.78;;;;;;;4.37;100.00;101262.58;1672136;85;21503;-66
2021/12/14 01:14:09;;;;;;;26.02;14.00;;;;;;;4.37;100.00;101266.40;1659213;85;21062;-67
2021/12/14 01:16:53;;;;;;;33.58;14.40;;;;;;;4.35;100.00;101257.91;1660763;85;21085;-67
2021/12/14 01:19:26;;;;;;;29.37;14.18;;;;;;;4.34;100.00;101269.83;1663502;85;21108;-66
2021/12/14 01:27:22;;;;;;;25.23;13.25;;;;;;;4.35;100.00;101279.14;1690428;83;21615;-67
2021/12/14 01:29:53;;;;;;;31.25;14.43;;;;;;;4.40;100.00;101270.22;1694470;84;21056;-67
2021/12/14 01:32:22;;;;;;;24.10;13.58;;;;;;;4.42;100.00;101279.98;1696375;83;21552;-67
2021/12/14 01:34:49;;;;;;;26.52;13.70;;;;;;;4.40;100.00;101277.87;1697830;83;21043;-67
2021/12/14 01:37:23;;;;;;;29.55;14.55;;;;;;;4.43;100.00;101271.45;1697628;84;21068;-67
2021/12/14 01:42:30;;;;;;;31.20;14.28;;;;;;;4.42;100.00;101279.98;1696338;83;21120;-67
2021/12/14 01:45:01;;;;;;;24.05;14.63;;;;;;;4.47;100.00;101285.04;1697326;84;21064;-67
2021/12/14 01:47:35;;;;;;;28.60;15.20;;;;;;;4.50;100.00;101289.70;1696545;84;21111;-66
2021/12/14 01:50:13;;;;;;;29.75;14.98;;;;;;;4.53;100.00;101283.29;1696908;83;21084;-66
2021/12/14 01:52:57;;;;;;;26.90;15.78;;;;;;;4.56;100.00;101285.83;1647593;84;21080;-67
2021/12/14 01:55:29;;;;;;;23.18;14.60;;;;;;;4.56;100.00;101282.01;1672795;84;21047;-67
2021/12/14 01:58:00;;;;;;;23.80;14.58;;;;;;;4.56;100.00;101283.28;1669230;84;21028;-67
2021/12/14 02:00:33;;;;;;;25.30;14.45;;;;;;;4.55;100.00;101279.02;1696575;83;21056;-66
2021/12/14 02:03:04;;;;;;;28.55;15.13;;;;;;;4.56;100.00;101275.63;1696133;83;21548;-67
2021/12/14 02:05:39;;;;;;;23.73;14.05;;;;;;;4.57;100.00;101269.66;1697113;84;21052;-67
2021/12/14 02:08:17;;;;;;;24.47;13.08;;;;;;;4.55;100.00;101271.37;1696370;84;21097;-67
2021/12/14 02:10:45;;;;;;;26.62;13.50;;;;;;;4.50;100.00;101265.48;1696144;83;21576;-67
2021/12/14 02:13:14;;;;;;;29.10;13.50;;;;;;;4.49;100.00;101267.59;1696669;83;21053;-67
2021/12/14 02:15:45;;;;;;;28.12;13.78;;;;;;;4.46;100.00;101261.66;1696316;83;21562;-67
2021/12/14 02:18:18;;;;;;;22.42;13.20;;;;;;;4.44;100.00;101261.70;1696490;84;21024;-67
2021/12/14 02:21:02;;;;;;;23.15;13.68;;;;;;;4.48;100.00;101264.64;1697067;84;21048;-67
2021/12/14 02:23:31;;;;;;;24.02;13.28;;;;;;;4.52;100.00;101261.62;1698632;84;21644;-66
2021/12/14 02:26:03;;;;;;;23.65;12.50;;;;;;;4.49;100.00;101259.11;1694928;84;21048;-66
2021/12/14 02:28:30;;;;;;;29.98;13.10;;;;;;;4.46;100.00;101254.02;1697271;83;21052;-67
2021/12/14 02:30:59;;;;;;;25.80;13.68;;;;;;;4.50;100.00;101260.37;1696814;83;21588;-66
2021/12/14 02:33:32;;;;;;;30.25;13.18;;;;;;;4.46;100.00;101254.88;1691198;83;21532;-67
2021/12/14 02:36:03;;;;;;;27.15;13.98;;;;;;;4.50;100.00;101255.69;1696752;83;21020;-67
2021/12/14 02:38:30;;;;;;;27.32;14.60;;;;;;;4.49;100.00;101259.11;1693588;83;21328;-67
2021/12/14 02:41:02;;;;;;;28.38;14.43;;;;;;;4.49;100.00;101259.94;1671547;84;21068;-66
2021/12/14 02:43:42;;;;;;;31.20;15.80;;;;;;;4.54;100.00;101267.55;1696303;83;21092;-67
2021/12/14 02:46:14;;;;;;;24.12;14.38;;;;;;;4.58;100.00;101261.17;1697368;83;21564;-67
2021/12/14 02:48:49;;;;;;;29.23;14.00;;;;;;;4.60;100.00;101258.17;1696737;83;21556;-67
2021/12/14 02:51:36;;;;;;;27.90;14.35;;;;;;;4.60;100.00;101263.69;1689888;83;21151;-67
2021/12/14 02:54:14;;;;;;;28.52;15.85;;;;;;;4.61;100.00;101266.67;1696362;83;21080;-67
2021/12/14 02:56:45;;;;;;;26.40;15.15;;;;;;;4.64;100.00;101283.64;1698836;84;21533;-67
2021/12/14 02:59:18;;;;;;;24.98;14.28;;;;;;;4.61;100.00;101280.25;1696326;84;21112;-68
2021/12/14 03:01:48;;;;;;;31.17;15.68;;;;;;;4.62;100.00;101282.37;1671087;84;21548;-67
2021/12/14 03:04:17;;;;;;;28.83;15.18;;;;;;;4.63;100.00;101278.14;1695839;84;21048;-67
2021/12/14 03:06:56;;;;;;;30.02;14.68;;;;;;;4.57;100.00;101277.31;1696800;83;21052;-67
2021/12/14 03:09:54;;;;;;;29.07;13.83;;;;;;;4.55;100.00;101265.44;1697540;83;21037;-67
2021/12/14 03:12:16;;;;;;;31.17;14.23;;;;;;;4.49;100.00;101253.56;1692607;83;21077;-67
2021/12/14 03:14:52;;;;;;;;;;;;;;;4.48;100.00;101242.09;1698006;83;21037;-67
2021/12/14 03:17:20;;;;;;;30.50;13.78;;;;;;;4.44;100.00;101238.75;1689257;84;20132;-67
2021/12/14 03:20:01;;;;;;;35.95;15.48;;;;;;;4.42;100.00;101237.91;1656544;85;21556;-67
2021/12/14 03:22:36;;;;;;;32.35;14.60;;;;;;;4.43;100.00;101243.42;1696408;83;21091;-67
2021/12/14 03:25:06;;;;;;;30.30;14.18;;;;;;;4.41;100.00;101243.42;1697878;83;21056;-67
2021/12/14 03:27:37;;;;;;;38.88;16.48;;;;;;;4.43;100.00;101242.58;1696924;83;21095;-67
2021/12/14 03:30:29;;;;;;;24.95;14.35;;;;;;;4.43;100.00;101247.23;1692018;83;21120;-66
2021/12/14 03:33:08;;;;;;;39.50;16.23;;;;;;;4.48;100.00;101254.84;1697531;84;21012;-67
2021/12/14 03:35:43;;;;;;;30.50;16.27;;;;;;;4.49;100.00;101259.11;1696995;84;21567;-67
2021/12/14 03:38:19;;;;;;;31.17;16.17;;;;;;;4.49;100.00;101264.20;1687500;83;21088;-67
2021/12/14 03:40:54;;;;;;;34.20;14.85;;;;;;;4.52;100.00;101258.66;1697645;84;21024;-67
2021/12/14 03:43:22;;;;;;;31.57;14.40;;;;;;;4.49;100.00;101252.30;1692771;84;21125;-67
2021/12/14 03:45:51;;;;;;;33.80;15.43;;;;;;;4.48;100.00;101256.99;1696606;84;21082;-67
2021/12/14 03:48:23;;;;;;;26.82;15.38;;;;;;;4.47;100.00;101271.86;1697072;83;21008;-67
2021/12/14 03:50:50;;;;;;;30.12;15.88;;;;;;;4.46;100.00;101276.55;1695921;84;21580;-67
2021/12/14 03:53:21;;;;;;;31.40;16.52;;;;;;;4.47;100.00;101280.78;1696594;83;21079;-67
2021/12/14 03:55:56;;;;;;;29.95;15.25;;;;;;;4.46;100.00;101278.23;1697586;84;21071;-67
2021/12/14 03:58:35;;;;;;;31.35;17.00;;;;;;;4.49;100.00;101292.25;1696221;83;21044;-67
2021/12/14 04:01:10;;;;;;;32.40;15.53;;;;;;;4.50;100.00;101295.20;1696791;83;21064;-67
2021/12/14 04:03:38;;;;;;;32.30;16.15;;;;;;;4.49;100.00;101300.73;1695797;84;21088;-67
2021/12/14 04:06:14;;;;;;;34.53;16.48;;;;;;;4.53;100.00;101303.69;1695427;84;21009;-67
2021/12/14 04:08:42;;;;;;;32.10;16.37;;;;;;;4.52;100.00;101307.11;1697067;84;21020;-67
2021/12/14 04:11:11;;;;;;;35.85;16.85;;;;;;;4.52;100.00;101302.01;1695936;83;21048;-67
2021/12/14 04:13:43;;;;;;;39.25;18.15;;;;;;;4.50;100.00;101304.99;1696966;84;21068;-67
2021/12/14 04:16:17;;;;;;;40.55;19.35;;;;;;;4.47;100.00;101297.78;1697372;84;21068;-67
2021/12/14 04:18:47;;;;;;;35.00;17.55;;;;;;;4.51;100.00;101304.13;1696877;83;21080;-68
2021/12/14 04:21:16;;;;;;;40.25;17.23;;;;;;;4.51;100.00;101291.81;1669091;85;21083;-67
2021/12/14 04:23:49;;;;;;;34.48;16.62;;;;;;;4.51;100.00;101287.98;1670981;84;21102;-67
2021/12/14 04:26:18;;;;;;;34.30;15.75;;;;;;;4.53;100.00;101290.94;1696105;83;21103;-67
2021/12/14 04:28:51;;;;;;;34.15;16.10;;;;;;;4.45;100.00;101293.12;1696507;84;21163;-67
2021/12/14 04:31:18;;;;;;;39.60;16.85;;;;;;;4.47;100.00;101297.78;1697664;83;21604;-67
2021/12/14 04:33:48;;;;;;;37.95;17.70;;;;;;;4.50;100.00;101301.58;1696978;84;21583;-67
2021/12/14 04:36:20;;;;;;;33.60;16.35;;;;;;;4.51;100.00;101292.65;1670149;84;21537;-67
2021/12/14 04:38:56;;;;;;;33.75;15.40;;;;;;;4.50;100.00;101301.17;1672907;84;21559;-68
2021/12/14 04:52:29;;;;;;;32.90;16.65;;;;;;;4.51;100.00;101309.22;1691782;84;21557;-67
2021/12/14 04:55:07;;;;;;;34.88;15.05;;;;;;;4.52;100.00;101311.34;1695745;83;21575;-67
2021/12/14 04:57:43;;;;;;;33.67;15.38;;;;;;;4.49;100.00;101302.02;1697283;84;21071;-66
2021/12/14 05:00:25;;;;;;;36.15;16.48;;;;;;;4.44;100.00;101299.06;1689563;84;21084;-67
2021/12/14 05:03:00;;;;;;;34.00;16.85;;;;;;;4.40;100.00;101300.81;1674675;83;21091;-67
2021/12/14 05:05:33;;;;;;;37.95;15.53;;;;;;;4.39;100.00;101306.75;1695613;83;21104;-67
2021/12/14 05:11:10;;;;;;;36.28;15.30;;;;;;;4.27;100.00;101293.64;1692121;84;21592;-67
2021/12/14 05:13:46;;;;;;;35.60;16.05;;;;;;;4.27;100.00;101285.16;1689093;83;21527;-68
2021/12/14 05:16:22;;;;;;;38.83;17.23;;;;;;;4.27;100.00;101288.98;1686611;84;21111;-67
2021/12/14 05:18:56;;;;;;;30.65;16.75;;;;;;;4.28;100.00;101296.62;1669631;84;21564;-68
2021/12/14 05:21:32;;;;;;;37.75;18.17;;;;;;;4.33;100.00;101300.41;1697696;83;21092;-67
2021/12/14 05:24:03;;;;;;;42.98;19.98;;;;;;;4.36;100.00;101314.39;1697254;84;21033;-67
2021/12/14 05:26:34;;;;;;;48.73;21.68;;;;;;;4.39;100.00;101319.05;1696049;83;21092;-68
2021/12/14 05:29:05;;;;;;;47.85;21.73;;;;;;;4.43;100.00;101325.43;1697724;83;21545;-67
2021/12/14 05:31:32;;;;;;;42.38;21.33;;;;;;;4.43;100.00;101319.05;1669447;85;21107;-68
2021/12/14 05:34:00;;;;;;;38.48;17.10;;;;;;;4.43;100.00;101316.07;1639560;87;21099;-68
2021/12/14 05:36:28;;;;;;;40.50;18.55;;;;;;;4.41;100.00;101321.17;1661199;85;21071;-67
2021/12/14 05:39:07;;;;;;;43.42;20.35;;;;;;;4.43;100.00;101317.78;1653928;85;21142;-67
2021/12/14 05:44:26;;;;;;;34.45;18.73;;;;;;;4.42;100.00;101324.59;1696381;83;21036;-66
2021/12/14 05:46:57;;;;;;;41.55;19.52;;;;;;;4.43;100.00;101339.02;1696265;84;21052;-67
2021/12/14 05:49:32;;;;;;;39.83;21.10;;;;;;;4.43;100.00;101338.17;1690121;84;21088;-67
2021/12/14 05:52:04;;;;;;;43.65;21.57;;;;;;;4.48;100.00;101336.03;1696882;83;21099;-67
2021/12/14 05:54:33;;;;;;;41.45;20.68;;;;;;;4.51;100.00;101330.05;1677545;83;21533;-67
2021/12/14 05:57:04;;;;;;;35.73;18.55;;;;;;;4.46;100.00;101327.54;1671246;83;21544;-67
2021/12/14 05:59:34;;;;;;;36.88;17.37;;;;;;;4.47;100.00;101322.01;1673973;84;21004;-67
2021/12/14 06:02:06;;;;;;;38.33;16.60;;;;;;;4.46;100.00;101313.92;1672786;84;21056;-67
2021/12/14 06:04:45;;;;;;;37.28;16.97;;;;;;;4.46;100.00;101316.47;1666772;83;21569;-67
2021/12/14 06:07:12;;;;;;;39.30;17.57;;;;;;;4.50;100.00;101316.88;1673243;84;21009;-67
2021/12/14 06:09:45;;;;;;;32.03;16.70;;;;;;;4.53;100.00;101316.43;1670457;85;21019;-67
2021/12/14 06:12:24;;;;;;;34.08;16.30;;;;;;;4.49;100.00;101321.56;1668331;85;21023;-67
2021/12/14 06:14:59;;;;;;;38.33;17.80;;;;;;;4.54;100.00;101318.14;1650890;85;21050;-67
2021/12/14 06:17:35;;;;;;;41.45;18.65;;;;;;;4.61;100.00;101313.84;1651861;86;21558;-68
2021/12/14 06:20:24;;;;;;;37.30;17.12;;;;;;;4.52;100.00;101319.86;1658617;85;21559;-67
2021/12/14 06:22:53;;;;;;;38.00;17.02;;;;;;;4.54;100.00;101332.17;1656525;86;21579;-67
2021/12/14 06:25:31;;;;;;;36.58;17.17;;;;;;;4.57;100.00;101337.23;1633891;85;21095;-67
2021/12/14 06:28:02;;;;;;;39.60;17.30;;;;;;;4.63;100.00;101323.60;1654603;85;21063;-67
2021/12/14 06:30:33;;;;;;;31.20;16.57;;;;;;;4.67;100.00;101319.34;1653825;85;21523;-67
2021/12/14 06:33:08;;;;;;;32.85;17.15;;;;;;;4.69;100.00;101324.00;1665513;85;21556;-68
2021/12/14 06:35:49;;;;;;;33.02;16.75;;;;;;;4.70;100.00;101329.06;1662414;84;21061;-67
2021/12/14 06:38:28;;;;;;;33.55;17.05;;;;;;;4.73;100.00;101337.15;1664309;84;21045;-67
2021/12/14 06:41:16;;;;;;;39.35;17.85;;;;;;;4.70;100.00;101340.98;1661992;85;21498;-67
2021/12/14 06:43:57;;;;;;;36.98;17.50;;;;;;;4.67;100.00;101347.39;1671516;84;21025;-68
2021/12/14 06:46:36;;;;;;;46.00;22.62;;;;;;;4.71;100.00;101355.44;1686966;83;21216;-68
2021/12/14 06:49:09;;;;;;;44.03;25.00;;;;;;;4.71;100.00;101356.28;1694627;84;21072;-67
2021/12/14 06:51:47;;;;;;;43.65;25.30;;;;;;;4.68;100.00;101360.11;1688645;84;21011;-68
2021/12/14 06:54:23;;;;;;;43.08;20.10;;;;;;;4.67;100.00;101366.08;1697822;83;21566;-67
2021/12/14 06:57:09;;;;;;;44.65;23.90;;;;;;;4.70;100.00;101370.31;1697980;84;21078;-67
2021/12/14 06:59:41;;;;;;;39.63;19.85;;;;;;;4.68;100.00;101371.59;1671569;84;21018;-68
2021/12/14 07:02:13;;;;;;;37.65;18.37;;;;;;;4.68;100.00;101361.81;1677118;84;21106;-68
2021/12/14 07:04:49;;;;;;;36.48;18.40;;;;;;;4.68;100.00;101352.89;1672149;86;21161;-68
2021/12/14 07:07:23;;;;;;;38.75;19.05;;;;;;;4.71;100.00;101352.45;1677169;84;21590;-68
2021/12/14 07:09:57;;;;;;;38.67;17.98;;;;;;;4.79;100.00;101360.06;1676699;85;21062;-68
2021/12/14 07:12:34;;;;;;;38.70;18.27;;;;;;;4.79;100.00;101358.35;1676527;85;21102;-68
2021/12/14 07:15:21;;;;;;;37.83;17.90;;;;;;;4.78;100.00;101362.18;1664351;85;21087;-68
2021/12/14 07:18:02;;;;;;;41.23;18.02;;;;;;;4.82;100.00;101358.75;1674358;84;21524;-67
2021/12/14 07:20:33;;;;;;;40.20;19.65;;;;;;;4.77;100.00;101362.62;1673869;84;21142;-67
2021/12/14 07:23:18;;;;;;;37.05;18.35;;;;;;;4.79;100.00;101366.00;1682229;83;21058;-67
2021/12/14 07:25:58;;;;;;;40.17;20.45;;;;;;;4.81;100.00;101363.45;1673426;84;21025;-67
2021/12/14 07:28:30;;;;;;;38.63;19.82;;;;;;;4.71;100.00;101361.81;1663571;84;21076;-66
2021/12/14 07:31:02;;;;;;;36.35;19.65;;;;;;;4.74;100.00;101365.61;1669111;84;21127;-68
2021/12/14 07:33:34;;;;;;;36.63;18.20;;;;;;;4.78;100.00;101370.67;1660497;84;21560;-68
2021/12/14 07:36:11;;;;;;;34.40;18.20;;;;;;;4.79;100.00;101368.55;1674507;83;21178;-68
2021/12/14 07:38:55;;;;;;;35.60;17.40;;;;;;;4.86;100.00;101368.08;1671593;84;21552;-68
2021/12/14 07:41:33;;;;;;;37.23;17.55;;;;;;;4.93;100.00;101368.47;1672919;84;21053;-68
2021/12/14 07:44:23;;;;;;;38.80;17.35;;;;;;;4.96;100.00;101375.25;1676280;84;21048;-68
2021/12/14 07:47:07;;;;;;;35.65;18.55;;;;;;;5.00;100.00;101385.85;1666863;84;21589;-67
2021/12/14 07:49:45;;;;;;;35.80;18.65;;;;;;;5.01;100.00;101395.22;1671686;85;21055;-67
2021/12/14 07:52:19;;;;;;;32.10;17.12;;;;;;;5.01;100.00;101399.87;1672645;85;21047;-67
2021/12/14 07:54:57;;;;;;;27.50;15.78;;;;;;;5.05;100.00;101406.22;1670834;84;21087;-67
2021/12/14 07:57:31;;;;;;;32.17;15.88;;;;;;;5.08;100.00;101403.66;1671924;85;21596;-67
2021/12/14 08:00:12;;;;;;;31.48;16.60;;;;;;;5.09;100.00;101395.13;1638664;86;21120;-68
2021/12/14 08:02:49;;;;;;;39.48;18.25;;;;;;;5.08;100.00;101385.37;1663847;84;21527;-68
2021/12/14 08:05:27;;;;;;;32.90;16.82;;;;;;;5.06;100.00;101393.46;1664693;84;21071;-67
2021/12/14 08:08:13;;;;;;;32.38;16.27;;;;;;;5.06;100.00;101386.24;1660792;84;21799;-68
2021/12/14 08:10:45;;;;;;;31.55;16.17;;;;;;;5.01;100.00;101393.50;1664631;85;21085;-67
2021/12/14 08:13:19;;;;;;;34.13;15.70;;;;;;;5.02;100.00;101389.23;1616182;88;21014;-67
2021/12/14 08:15:57;;;;;;;33.05;15.30;;;;;;;5.09;100.00;101380.70;1663679;85;21050;-67
2021/12/14 08:18:37;;;;;;;30.57;17.23;;;;;;;5.15;100.00;101389.58;1670183;85;21550;-67
2021/12/14 08:21:12;;;;;;;36.93;19.80;;;;;;;5.17;100.00;101390.82;1671681;85;21593;-66
2021/12/14 08:23:58;;;;;;;33.50;17.62;;;;;;;5.13;100.00;101394.25;1669374;84;21051;-67
2021/12/14 08:26:37;;;;;;;33.53;20.05;;;;;;;5.12;100.00;101383.20;1672488;85;21124;-67
2021/12/14 08:29:17;;;;;;;31.75;17.87;;;;;;;5.10;100.00;101378.98;1673857;83;21058;-67
2021/12/14 08:31:49;;;;;;;31.82;18.42;;;;;;;5.11;100.00;101375.55;1670648;86;21043;-67
2021/12/14 08:34:24;;;;;;;37.83;20.48;;;;;;;5.14;100.00;101375.55;1669270;86;21106;-67
2021/12/14 08:36:56;;;;;;;36.80;17.48;;;;;;;5.19;100.00;101368.28;1668111;85;21078;-67
2021/12/14 08:39:28;;;;;;;31.62;16.93;;;;;;;5.19;100.00;101362.30;1664432;85;21622;-67
2021/12/14 08:42:13;;;;;;;33.02;17.00;;;;;;;4.99;100.00;101359.93;1674704;85;21106;-67
2021/12/14 08:44:51;;;;;;;33.73;16.60;;;;;;;4.88;100.00;101357.88;1673863;84;21043;-67
2021/12/14 08:47:18;;;;;;;33.13;16.30;;;;;;;4.88;100.00;101357.88;1682970;84;21055;-67
2021/12/14 08:49:45;;;;;;;33.42;15.32;;;;;;;4.96;100.00;101358.23;1691722;83;21044;-67
2021/12/14 08:52:12;;;;;;;31.07;15.20;;;;;;;4.99;100.00;101349.29;1692438;84;21193;-67
2021/12/14 08:54:40;;;;;;;28.50;14.38;;;;;;;5.05;100.00;101348.41;1697473;84;21076;-67
2021/12/14 08:57:15;;;;;;;26.95;13.93;;;;;;;5.14;100.00;101350.86;1697293;83;21481;-67
2021/12/14 08:59:47;;;;;;;31.48;15.48;;;;;;;5.09;100.00;101362.83;1696891;83;21052;-67
2021/12/14 09:02:17;;;;;;;29.30;14.23;;;;;;;5.14;100.00;101362.78;1696735;84;21048;-67
2021/12/14 09:04:55;;;;;;;27.77;14.87;;;;;;;5.08;100.00;101353.47;1696517;83;21064;-67
2021/12/14 09:07:27;;;;;;;28.35;15.25;;;;;;;4.93;100.00;101354.44;1695901;84;21068;-67
2021/12/14 09:09:56;;;;;;;32.05;15.90;;;;;;;4.85;100.00;101341.33;1694679;84;21504;-67
2021/12/14 09:12:34;;;;;;;28.40;15.48;;;;;;;4.88;100.00;101337.02;1696427;84;21064;-67
2021/12/14 09:15:06;;;;;;;28.17;15.72;;;;;;;4.86;100.00;101343.84;1696752;84;21055;-67
2021/12/14 09:17:33;;;;;;;28.30;15.93;;;;;;;4.90;100.00;101327.66;1696621;83;21053;-67
2021/12/14 09:20:06;;;;;;;44.20;20.77;;;;;;;4.85;100.00;101330.69;1696925;83;21092;-67
2021/12/14 09:22:41;;;;;;;46.42;22.45;;;;;;;4.77;100.00;101320.53;1697136;83;21571;-68
2021/12/14 09:25:10;;;;;;;54.53;27.07;;;;;;;4.67;100.00;101316.78;1691873;84;21115;-67
2021/12/14 09:27:38;;;;;;;51.77;26.25;;;;;;;4.66;100.00;101322.73;1696554;84;21188;-66
2021/12/14 09:30:09;;;;;;;52.62;25.20;;;;;;;4.62;100.00;101319.34;1696850;83;21092;-67
2021/12/14 09:32:38;;;;;;;53.17;25.65;;;;;;;4.58;100.00;101327.47;1697377;83;21145;-68
2021/12/14 09:35:12;;;;;;;55.75;25.52;;;;;;;4.64;100.00;101321.89;1691093;83;21037;-67
2021/12/14 09:37:38;;;;;;;55.85;24.23;;;;;;;4.63;100.00;101319.78;1696700;83;21575;-67
2021/12/14 09:40:11;;;;;;;54.65;22.75;;;;;;;4.65;100.00;101324.44;1697607;83;21041;-67
2021/12/14 09:42:39;;;;;;;49.30;22.55;;;;;;;4.66;100.00;101330.38;1691203;84;21099;-67
2021/12/14 09:45:12;;;;;;;44.85;21.23;;;;;;;4.64;100.00;101341.02;1697284;83;21092;-68
2021/12/14 09:47:40;;;;;;;48.17;21.97;;;;;;;4.72;100.00;101346.92;1696291;84;21016;-68
2021/12/14 09:50:12;;;;;;;48.68;23.18;;;;;;;4.65;100.00;101335.08;1696793;84;21102;-67
2021/12/14 09:52:43;;;;;;;38.98;19.37;;;;;;;4.58;100.00;101334.25;1692710;84;21532;-67
2021/12/14 09:55:15;;;;;;;44.33;21.57;;;;;;;4.54;100.00;101338.54;1690209;83;21056;-67
2021/12/14 09:57:47;;;;;;;42.40;20.85;;;;;;;4.58;100.00;101338.07;1689751;84;21078;-67
2021/12/14 10:00:19;;;;;;;45.67;21.33;;;;;;;4.66;100.00;101328.67;1690316;84;21135;-67
2021/12/14 10:02:51;;;;;;;42.33;20.88;;;;;;;4.69;100.00;101336.31;1695809;84;21151;-67
2021/12/14 10:05:26;;;;;;;45.70;21.10;;;;;;;4.75;100.00;101339.27;1695550;84;21585;-67
2021/12/14 10:07:55;;;;;;;46.55;22.00;;;;;;;4.79;100.00;101335.83;1693165;84;21100;-67
2021/12/14 10:10:23;;;;;;;44.15;20.40;;;;;;;4.82;100.00;101329.42;1690297;84;21013;-67
2021/12/14 10:12:54;;;;;;;51.77;23.52;;;;;;;4.61;100.00;101322.77;1698433;84;21130;-67
2021/12/14 10:15:35;;;;;;;54.65;23.87;;;;;;;4.62;100.00;101316.80;1697544;83;21095;-67
2021/12/14 10:18:16;;;;;;;45.08;21.90;;;;;;;4.72;100.00;101324.80;1691852;84;21075;-67
2021/12/14 10:20:57;;;;;;;47.25;22.20;;;;;;;4.73;100.00;101319.30;1695381;83;21084;-67
2021/12/14 10:23:25;;;;;;;48.92;22.45;;;;;;;4.75;100.00;101303.12;1685603;84;21053;-67
2021/12/14 10:25:54;;;;;;;49.00;23.07;;;;;;;4.64;100.00;101304.05;1696724;83;21060;-67
2021/12/14 10:28:23;;;;;;;55.73;24.23;;;;;;;4.54;100.00;101312.17;1696127;84;21151;-67
2021/12/14 10:30:58;;;;;;;55.20;24.18;;;;;;;4.47;100.00;101302.45;1697041;83;21570;-67
2021/12/14 10:33:31;;;;;;;55.38;24.15;;;;;;;4.52;100.00;101298.19;1697157;83;21571;-67
2021/12/14 10:36:13;;;;;;;56.15;22.60;;;;;;;4.57;100.00;101304.08;1696568;83;21123;-67
2021/12/14 10:38:51;;;;;;;48.87;22.07;;;;;;;4.57;100.00;101304.08;1696383;84;21088;-67
2021/12/14 10:44:00;;;;;;;46.35;21.82;;;;;;;4.49;100.00;101304.56;1697194;83;21036;-67
2021/12/14 10:46:38;;;;;;;41.80;21.45;;;;;;;4.50;100.00;101297.34;1693335;84;21075;-67
2021/12/14 10:49:06;;;;;;;45.20;20.35;;;;;;;4.57;100.00;101307.91;1696132;84;21013;-68
2021/12/14 10:51:37;;;;;;;43.23;21.25;;;;;;;4.48;100.00;101318.59;1696563;83;21056;-67
2021/12/14 10:54:10;;;;;;;42.95;21.33;;;;;;;4.60;100.00;101319.78;1694410;83;21565;-67
2021/12/14 10:56:51;;;;;;;42.55;21.02;;;;;;;4.64;100.00;101319.34;1696151;83;21670;-67
2021/12/14 10:59:23;;;;;;;45.58;20.90;;;;;;;4.77;100.00;101306.50;1686654;84;21068;-68
2021/12/14 11:01:54;;;;;;;48.90;20.75;;;;;;;4.94;100.00;101308.91;1696957;83;21159;-69
2021/12/14 11:04:40;;;;;;;43.48;21.07;;;;;;;4.97;100.00;101311.89;1668830;84;21017;-69
2021/12/14 11:07:18;;;;;;;36.95;18.50;;;;;;;4.88;100.00;101319.61;1698785;83;21595;-67
2021/12/14 11:09:49;;;;;;;46.55;21.57;;;;;;;4.74;100.00;101313.32;1691736;83;21099;-69
2021/12/14 11:12:30;;;;;;;43.20;19.92;;;;;;;4.68;100.00;101312.93;1697277;83;21096;-67
2021/12/14 11:15:09;;;;;;;46.88;19.75;;;;;;;4.63;100.00;101320.22;1692703;84;21576;-67
2021/12/14 11:21:47;;;;;;;44.93;20.45;;;;;;;3.97;100.00;101317.55;1811492;77;23467;-68
2021/12/14 11:24:14;;;;;;;42.90;20.25;;;;;;;4.23;100.00;101314.89;1781255;78;21038;-68
2021/12/14 11:26:41;;;;;;;44.50;20.50;;;;;;;4.30;100.00;101325.50;1787642;78;21042;-68
2021/12/14 11:29:15;;;;;;;44.58;20.30;;;;;;;4.35;100.00;101339.48;1804862;78;21036;-67
2021/12/14 11:31:52;;;;;;;41.18;21.02;;;;;;;4.35;100.00;101330.56;1762838;79;21032;-68
2021/12/14 11:34:35;;;;;;;43.17;20.05;;;;;;;4.26;100.00;101314.02;1759038;80;20996;-68
2021/12/14 11:37:08;;;;;;;42.05;18.98;;;;;;;4.27;100.00;101307.66;1727678;82;21001;-69
2021/12/14 11:39:41;;;;;;;45.15;19.37;;;;;;;4.33;100.00;101325.46;1709821;83;21038;-68
2021/12/14 11:42:12;;;;;;;45.95;20.10;;;;;;;4.30;100.00;101338.23;1706953;83;21144;-67
2021/12/14 11:44:45;;;;;;;47.70;20.85;;;;;;;4.30;100.00;101319.13;1712931;83;21061;-68
2021/12/14 11:50:16;;;;;;;45.40;20.02;;;;;;;4.37;100.00;101304.64;1696315;83;21018;-68
2021/12/14 11:52:57;;;;;;;43.10;19.48;;;;;;;4.40;100.00;101316.95;1752878;80;21003;-67
2021/12/14 11:55:39;;;;;;;43.05;19.70;;;;;;;4.45;100.00;101314.80;1745067;80;20999;-68
2021/12/14 11:58:17;;;;;;;42.98;19.92;;;;;;;4.45;100.00;101309.70;1749083;80;21019;-67
2021/12/14 12:01:15;;;;;;;50.70;22.13;;;;;;;4.47;100.00;101316.91;1756865;80;21035;-68
2021/12/14 12:03:57;;;;;;;50.40;21.07;;;;;;;4.53;100.00;101320.26;1754130;80;21036;-67
2021/12/14 12:09:43;;;;;;;46.73;20.40;;;;;;;4.43;100.00;101324.99;1761114;80;21032;-68
2021/12/14 12:12:33;;;;;;;42.40;20.40;;;;;;;4.34;100.00;101323.75;1764355;81;21036;-68
2021/12/14 12:15:14;;;;;;;50.05;20.75;;;;;;;4.38;100.00;101340.76;1742146;80;21020;-68
2021/12/14 12:17:56;;;;;;;51.42;21.23;;;;;;;4.39;100.00;101343.27;1765264;80;21062;-68
2021/12/14 12:20:41;;;;;;;46.92;20.70;;;;;;;4.42;100.00;101360.28;1761553;80;21144;-68
2021/12/14 12:23:15;;;;;;;44.88;21.20;;;;;;;4.41;100.00;101359.41;1752166;81;21531;-68